sensor_id;sensor_type;location;lat;lon;timestamp;temperature;humidity
10296;DHT22;5193;51.032;6.356;2023-09-19T00:02:03;15.40;99.90
10296;DHT22;5193;51.032;6.356;2023-09-19T00:04:45;15.30;99.90
10296;DHT22;5193;51.032;6.356;2023-09-19T00:07:37;15.30;99.90
10296;DHT22;5193;51.032;6.356;2023-09-19T00:10:14;15.30;99.90
10296;DHT22;5193;51.032;6.356;2023-09-19T00:12:45;15.40;99.90
10296;DHT22;5193;51.032;6.356;2023-09-19T00:15:11;15.40;99.90
10296;DHT22;5193;51.032;6.356;2023-09-19T00:17:39;15.40;99.90
10296;DHT22;5193;51.032;6.356;2023-09-19T00:20:06;15.40;99.90
10296;DHT22;5193;51.032;6.356;2023-09-19T00:22:41;15.40;99.90
10296;DHT22;5193;51.032;6.356;2023-09-19T00:25:09;15.40;99.90
10296;DHT22;5193;51.032;6.356;2023-09-19T00:27:39;15.50;99.90
10296;DHT22;5193;51.032;6.356;2023-09-19T00:30:09;15.50;99.90
10296;DHT22;5193;51.032;6.356;2023-09-19T00:32:45;15.50;99.90
10296;DHT22;5193;51.032;6.356;2023-09-19T00:35:13;15.50;99.90
10296;DHT22;5193;51.032;6.356;2023-09-19T00:37:42;15.50;99.90
10296;DHT22;5193;51.032;6.356;2023-09-19T00:40:09;15.50;99.90
10296;DHT22;5193;51.032;6.356;2023-09-19T00:42:41;15.50;99.90
10296;DHT22;5193;51.032;6.356;2023-09-19T00:45:08;15.50;99.90
10296;DHT22;5193;51.032;6.356;2023-09-19T00:47:39;15.50;99.90
10296;DHT22;5193;51.032;6.356;2023-09-19T00:50:08;15.50;99.90
10296;DHT22;5193;51.032;6.356;2023-09-19T00:52:37;15.50;99.90
10296;DHT22;5193;51.032;6.356;2023-09-19T00:55:06;15.50;99.90
10296;DHT22;5193;51.032;6.356;2023-09-19T00:57:33;15.50;99.90
10296;DHT22;5193;51.032;6.356;2023-09-19T01:00:01;15.50;99.90
10296;DHT22;5193;51.032;6.356;2023-09-19T01:02:42;15.50;99.90
10296;DHT22;5193;51.032;6.356;2023-09-19T01:05:11;15.50;99.90
10296;DHT22;5193;51.032;6.356;2023-09-19T01:07:38;15.40;99.90
10296;DHT22;5193;51.032;6.356;2023-09-19T01:10:08;15.40;99.90
10296;DHT22;5193;51.032;6.356;2023-09-19T01:12:51;15.40;99.90
10296;DHT22;5193;51.032;6.356;2023-09-19T01:18:27;15.40;99.90
10296;DHT22;5193;51.032;6.356;2023-09-19T01:21:26;15.40;99.90
10296;DHT22;5193;51.032;6.356;2023-09-19T01:24:34;15.40;99.90
10296;DHT22;5193;51.032;6.356;2023-09-19T01:30:42;15.30;99.90
10296;DHT22;5193;51.032;6.356;2023-09-19T01:33:09;15.30;99.90
10296;DHT22;5193;51.032;6.356;2023-09-19T01:35:38;15.30;99.90
10296;DHT22;5193;51.032;6.356;2023-09-19T01:38:05;15.30;99.90
10296;DHT22;5193;51.032;6.356;2023-09-19T01:43:25;15.20;99.90
10296;DHT22;5193;51.032;6.356;2023-09-19T01:46:06;15.20;99.90
10296;DHT22;5193;51.032;6.356;2023-09-19T01:48:51;15.20;99.90
10296;DHT22;5193;51.032;6.356;2023-09-19T01:54:03;15.20;99.90
10296;DHT22;5193;51.032;6.356;2023-09-19T01:56:50;15.10;99.90
10296;DHT22;5193;51.032;6.356;2023-09-19T01:59:20;15.10;99.90
10296;DHT22;5193;51.032;6.356;2023-09-19T02:01:48;15.10;99.90
10296;DHT22;5193;51.032;6.356;2023-09-19T02:04:15;15.10;99.90
10296;DHT22;5193;51.032;6.356;2023-09-19T02:06:41;15.00;99.90
10296;DHT22;5193;51.032;6.356;2023-09-19T02:09:08;15.00;99.90
10296;DHT22;5193;51.032;6.356;2023-09-19T02:11:50;15.00;99.90
10296;DHT22;5193;51.032;6.356;2023-09-19T02:14:48;14.90;99.90
10296;DHT22;5193;51.032;6.356;2023-09-19T02:17:14;14.90;99.90
10296;DHT22;5193;51.032;6.356;2023-09-19T02:19:40;14.90;99.90
10296;DHT22;5193;51.032;6.356;2023-09-19T02:22:06;14.90;99.90
10296;DHT22;5193;51.032;6.356;2023-09-19T02:24:33;14.80;99.90
10296;DHT22;5193;51.032;6.356;2023-09-19T02:27:01;14.80;99.90
10296;DHT22;5193;51.032;6.356;2023-09-19T02:29:30;14.80;99.90
10296;DHT22;5193;51.032;6.356;2023-09-19T02:31:56;14.80;99.90
10296;DHT22;5193;51.032;6.356;2023-09-19T02:34:22;14.80;99.90
10296;DHT22;5193;51.032;6.356;2023-09-19T02:36:49;14.80;99.90
10296;DHT22;5193;51.032;6.356;2023-09-19T02:39:15;14.80;99.90
10296;DHT22;5193;51.032;6.356;2023-09-19T02:41:41;14.80;99.90
10296;DHT22;5193;51.032;6.356;2023-09-19T02:44:08;14.80;98.70
10296;DHT22;5193;51.032;6.356;2023-09-19T02:46:34;14.70;97.00
10296;DHT22;5193;51.032;6.356;2023-09-19T02:49:02;14.70;96.70
10296;DHT22;5193;51.032;6.356;2023-09-19T02:51:30;14.70;99.10
10296;DHT22;5193;51.032;6.356;2023-09-19T02:53:56;14.70;98.70
10296;DHT22;5193;51.032;6.356;2023-09-19T02:56:22;14.70;99.90
10296;DHT22;5193;51.032;6.356;2023-09-19T02:58:48;14.60;99.90
10296;DHT22;5193;51.032;6.356;2023-09-19T03:01:14;14.60;99.90
10296;DHT22;5193;51.032;6.356;2023-09-19T03:03:40;14.60;99.90
10296;DHT22;5193;51.032;6.356;2023-09-19T03:06:06;14.60;99.90
10296;DHT22;5193;51.032;6.356;2023-09-19T03:08:34;14.50;99.90
10296;DHT22;5193;51.032;6.356;2023-09-19T03:11:03;14.50;99.90
10296;DHT22;5193;51.032;6.356;2023-09-19T03:13:31;14.50;99.90
10296;DHT22;5193;51.032;6.356;2023-09-19T03:15:57;14.50;99.90
10296;DHT22;5193;51.032;6.356;2023-09-19T03:18:26;14.40;99.90
10296;DHT22;5193;51.032;6.356;2023-09-19T03:20:55;14.40;99.90
10296;DHT22;5193;51.032;6.356;2023-09-19T03:23:22;14.50;99.90
10296;DHT22;5193;51.032;6.356;2023-09-19T03:25:48;14.40;99.90
10296;DHT22;5193;51.032;6.356;2023-09-19T03:28:14;14.40;99.90
10296;DHT22;5193;51.032;6.356;2023-09-19T03:30:41;14.40;99.90
10296;DHT22;5193;51.032;6.356;2023-09-19T03:33:08;14.40;99.90
10296;DHT22;5193;51.032;6.356;2023-09-19T03:35:37;14.40;99.90
10296;DHT22;5193;51.032;6.356;2023-09-19T03:38:04;14.40;99.90
10296;DHT22;5193;51.032;6.356;2023-09-19T03:40:31;14.30;99.90
10296;DHT22;5193;51.032;6.356;2023-09-19T03:43:00;14.30;99.90
10296;DHT22;5193;51.032;6.356;2023-09-19T03:48:08;14.30;99.90
10296;DHT22;5193;51.032;6.356;2023-09-19T03:50:35;14.30;99.90
10296;DHT22;5193;51.032;6.356;2023-09-19T03:53:01;14.20;99.90
10296;DHT22;5193;51.032;6.356;2023-09-19T03:55:28;14.20;99.90
10296;DHT22;5193;51.032;6.356;2023-09-19T03:57:56;14.20;99.90
10296;DHT22;5193;51.032;6.356;2023-09-19T04:00:23;14.20;99.90
10296;DHT22;5193;51.032;6.356;2023-09-19T04:02:52;14.20;99.90
10296;DHT22;5193;51.032;6.356;2023-09-19T04:05:22;14.10;99.90
10296;DHT22;5193;51.032;6.356;2023-09-19T04:07:48;14.10;99.90
10296;DHT22;5193;51.032;6.356;2023-09-19T04:10:16;14.10;99.90
10296;DHT22;5193;51.032;6.356;2023-09-19T04:12:55;14.10;99.90
10296;DHT22;5193;51.032;6.356;2023-09-19T04:15:22;14.10;99.90
10296;DHT22;5193;51.032;6.356;2023-09-19T04:17:49;14.10;99.90
10296;DHT22;5193;51.032;6.356;2023-09-19T04:20:18;14.10;99.90
10296;DHT22;5193;51.032;6.356;2023-09-19T04:22:51;14.10;99.90
10296;DHT22;5193;51.032;6.356;2023-09-19T04:25:17;14.10;99.90
10296;DHT22;5193;51.032;6.356;2023-09-19T04:27:44;14.10;99.90
10296;DHT22;5193;51.032;6.356;2023-09-19T04:30:12;14.00;99.90
10296;DHT22;5193;51.032;6.356;2023-09-19T04:32:40;14.00;99.90
10296;DHT22;5193;51.032;6.356;2023-09-19T04:35:10;14.00;99.90
10296;DHT22;5193;51.032;6.356;2023-09-19T04:37:39;14.00;99.90
10296;DHT22;5193;51.032;6.356;2023-09-19T04:40:07;14.00;99.90
10296;DHT22;5193;51.032;6.356;2023-09-19T04:42:43;14.00;99.90
10296;DHT22;5193;51.032;6.356;2023-09-19T04:45:11;14.00;99.90
10296;DHT22;5193;51.032;6.356;2023-09-19T04:47:39;14.00;99.90
10296;DHT22;5193;51.032;6.356;2023-09-19T04:50:08;14.00;99.90
10296;DHT22;5193;51.032;6.356;2023-09-19T04:52:45;13.90;99.90
10296;DHT22;5193;51.032;6.356;2023-09-19T04:55:12;13.90;99.90
10296;DHT22;5193;51.032;6.356;2023-09-19T04:57:50;14.00;99.90
10296;DHT22;5193;51.032;6.356;2023-09-19T05:00:17;14.00;99.90
10296;DHT22;5193;51.032;6.356;2023-09-19T05:02:45;14.00;99.90
10296;DHT22;5193;51.032;6.356;2023-09-19T05:05:12;14.00;99.00
10296;DHT22;5193;51.032;6.356;2023-09-19T05:07:42;14.10;99.20
10296;DHT22;5193;51.032;6.356;2023-09-19T05:10:12;14.10;99.10
10296;DHT22;5193;51.032;6.356;2023-09-19T05:12:39;14.10;98.10
10296;DHT22;5193;51.032;6.356;2023-09-19T05:15:06;14.20;97.20
10296;DHT22;5193;51.032;6.356;2023-09-19T05:17:36;14.10;96.10
10296;DHT22;5193;51.032;6.356;2023-09-19T05:20:02;14.20;99.00
10296;DHT22;5193;51.032;6.356;2023-09-19T05:22:32;14.10;99.90
10296;DHT22;5193;51.032;6.356;2023-09-19T05:24:59;14.20;99.50
10296;DHT22;5193;51.032;6.356;2023-09-19T05:30:14;14.20;99.90
10296;DHT22;5193;51.032;6.356;2023-09-19T05:32:44;14.20;96.40
10296;DHT22;5193;51.032;6.356;2023-09-19T05:35:11;14.20;96.20
10296;DHT22;5193;51.032;6.356;2023-09-19T05:37:39;14.30;97.70
10296;DHT22;5193;51.032;6.356;2023-09-19T05:40:06;14.30;96.30
10296;DHT22;5193;51.032;6.356;2023-09-19T05:45:29;14.30;96.80
10296;DHT22;5193;51.032;6.356;2023-09-19T05:47:55;14.30;98.70
10296;DHT22;5193;51.032;6.356;2023-09-19T05:50:26;14.30;97.80
10296;DHT22;5193;51.032;6.356;2023-09-19T05:52:55;14.30;99.90
10296;DHT22;5193;51.032;6.356;2023-09-19T05:55:22;14.30;99.30
10296;DHT22;5193;51.032;6.356;2023-09-19T05:57:51;14.30;99.90
10296;DHT22;5193;51.032;6.356;2023-09-19T06:00:21;14.30;99.90
10296;DHT22;5193;51.032;6.356;2023-09-19T06:02:55;14.30;99.90
10296;DHT22;5193;51.032;6.356;2023-09-19T06:05:23;14.30;99.90
10296;DHT22;5193;51.032;6.356;2023-09-19T06:07:49;14.30;99.80
10296;DHT22;5193;51.032;6.356;2023-09-19T06:10:15;14.30;99.90
10296;DHT22;5193;51.032;6.356;2023-09-19T06:12:49;14.30;99.90
10296;DHT22;5193;51.032;6.356;2023-09-19T06:15:20;14.30;99.90
10296;DHT22;5193;51.032;6.356;2023-09-19T06:17:55;14.30;99.90
10296;DHT22;5193;51.032;6.356;2023-09-19T06:20:22;14.30;99.90
10296;DHT22;5193;51.032;6.356;2023-09-19T06:22:49;14.30;99.90
10296;DHT22;5193;51.032;6.356;2023-09-19T06:25:15;14.30;99.90
10296;DHT22;5193;51.032;6.356;2023-09-19T06:27:48;14.30;99.90
10296;DHT22;5193;51.032;6.356;2023-09-19T06:30:18;14.40;99.90
10296;DHT22;5193;51.032;6.356;2023-09-19T06:32:44;14.40;99.90
10296;DHT22;5193;51.032;6.356;2023-09-19T06:35:10;14.40;99.90
10296;DHT22;5193;51.032;6.356;2023-09-19T06:37:37;14.40;99.90
10296;DHT22;5193;51.032;6.356;2023-09-19T06:40:14;14.50;99.90
10296;DHT22;5193;51.032;6.356;2023-09-19T06:42:44;14.50;99.90
10296;DHT22;5193;51.032;6.356;2023-09-19T06:45:11;14.50;99.90
10296;DHT22;5193;51.032;6.356;2023-09-19T06:47:39;14.50;99.90
10296;DHT22;5193;51.032;6.356;2023-09-19T06:50:05;14.50;99.90
10296;DHT22;5193;51.032;6.356;2023-09-19T06:52:34;14.60;99.90
10296;DHT22;5193;51.032;6.356;2023-09-19T06:55:00;14.60;99.90
10296;DHT22;5193;51.032;6.356;2023-09-19T06:57:28;14.60;99.90
10296;DHT22;5193;51.032;6.356;2023-09-19T06:59:56;14.70;99.90
10296;DHT22;5193;51.032;6.356;2023-09-19T07:02:22;14.70;99.90
10296;DHT22;5193;51.032;6.356;2023-09-19T07:04:49;14.70;99.90
10296;DHT22;5193;51.032;6.356;2023-09-19T07:07:15;14.80;99.90
10296;DHT22;5193;51.032;6.356;2023-09-19T07:09:41;14.80;99.90
10296;DHT22;5193;51.032;6.356;2023-09-19T07:12:08;14.90;99.90
10296;DHT22;5193;51.032;6.356;2023-09-19T07:14:34;14.90;99.90
10296;DHT22;5193;51.032;6.356;2023-09-19T07:17:00;14.90;99.90
10296;DHT22;5193;51.032;6.356;2023-09-19T07:19:26;15.00;99.60
10296;DHT22;5193;51.032;6.356;2023-09-19T07:21:57;15.00;97.80
10296;DHT22;5193;51.032;6.356;2023-09-19T07:24:25;15.10;97.80
10296;DHT22;5193;51.032;6.356;2023-09-19T07:29:28;15.20;98.50
10296;DHT22;5193;51.032;6.356;2023-09-19T07:31:53;15.30;97.70
10296;DHT22;5193;51.032;6.356;2023-09-19T07:34:20;15.30;96.60
10296;DHT22;5193;51.032;6.356;2023-09-19T07:36:50;15.40;93.80
10296;DHT22;5193;51.032;6.356;2023-09-19T07:39:16;15.40;95.80
10296;DHT22;5193;51.032;6.356;2023-09-19T07:41:42;15.50;95.00
10296;DHT22;5193;51.032;6.356;2023-09-19T07:44:08;15.60;94.70
10296;DHT22;5193;51.032;6.356;2023-09-19T07:46:36;15.70;90.40
10296;DHT22;5193;51.032;6.356;2023-09-19T07:49:02;15.70;90.50
10296;DHT22;5193;51.032;6.356;2023-09-19T07:51:28;15.80;90.30
10296;DHT22;5193;51.032;6.356;2023-09-19T07:53:54;15.80;91.90
10296;DHT22;5193;51.032;6.356;2023-09-19T07:58:55;15.90;90.60
10296;DHT22;5193;51.032;6.356;2023-09-19T08:01:23;16.00;90.50
10296;DHT22;5193;51.032;6.356;2023-09-19T08:03:49;16.10;80.10
10296;DHT22;5193;51.032;6.356;2023-09-19T08:06:15;16.10;86.60
10296;DHT22;5193;51.032;6.356;2023-09-19T08:08:44;16.20;77.40
10296;DHT22;5193;51.032;6.356;2023-09-19T08:11:10;16.30;77.10
10296;DHT22;5193;51.032;6.356;2023-09-19T08:13:38;16.30;75.30
10296;DHT22;5193;51.032;6.356;2023-09-19T08:16:18;16.30;76.30
10296;DHT22;5193;51.032;6.356;2023-09-19T08:18:48;16.40;84.70
10296;DHT22;5193;51.032;6.356;2023-09-19T08:21:21;16.50;79.00
10296;DHT22;5193;51.032;6.356;2023-09-19T08:23:49;16.60;81.70
10296;DHT22;5193;51.032;6.356;2023-09-19T08:26:16;16.60;75.10
10296;DHT22;5193;51.032;6.356;2023-09-19T08:28:42;16.70;67.50
10296;DHT22;5193;51.032;6.356;2023-09-19T08:31:08;16.70;65.90
10296;DHT22;5193;51.032;6.356;2023-09-19T08:33:36;16.80;71.70
10296;DHT22;5193;51.032;6.356;2023-09-19T08:36:03;16.80;71.00
10296;DHT22;5193;51.032;6.356;2023-09-19T08:38:34;16.90;67.80
10296;DHT22;5193;51.032;6.356;2023-09-19T08:41:04;16.90;57.80
10296;DHT22;5193;51.032;6.356;2023-09-19T08:43:31;17.00;51.00
10296;DHT22;5193;51.032;6.356;2023-09-19T08:46:12;17.00;61.50
10296;DHT22;5193;51.032;6.356;2023-09-19T08:48:46;17.10;66.40
10296;DHT22;5193;51.032;6.356;2023-09-19T08:51:26;17.10;50.00
10296;DHT22;5193;51.032;6.356;2023-09-19T08:54:03;17.10;57.60
10296;DHT22;5193;51.032;6.356;2023-09-19T08:56:32;17.20;60.70
10296;DHT22;5193;51.032;6.356;2023-09-19T08:59:05;17.20;48.20
10296;DHT22;5193;51.032;6.356;2023-09-19T09:01:35;17.30;52.10
10296;DHT22;5193;51.032;6.356;2023-09-19T09:04:02;17.30;47.50
10296;DHT22;5193;51.032;6.356;2023-09-19T09:06:29;17.40;49.30
10296;DHT22;5193;51.032;6.356;2023-09-19T09:08:55;17.40;45.20
10296;DHT22;5193;51.032;6.356;2023-09-19T09:11:25;17.50;41.90
10296;DHT22;5193;51.032;6.356;2023-09-19T09:21:43;17.80;49.70
10296;DHT22;5193;51.032;6.356;2023-09-19T09:24:31;17.90;43.10
10296;DHT22;5193;51.032;6.356;2023-09-19T09:42:40;18.20;27.00
10296;DHT22;5193;51.032;6.356;2023-09-19T09:45:23;18.20;22.50
10296;DHT22;5193;51.032;6.356;2023-09-19T09:47:59;18.30;39.90
10296;DHT22;5193;51.032;6.356;2023-09-19T09:50:39;18.30;36.20
10296;DHT22;5193;51.032;6.356;2023-09-19T09:53:33;18.30;23.20
10296;DHT22;5193;51.032;6.356;2023-09-19T09:56:05;18.30;42.50
10296;DHT22;5193;51.032;6.356;2023-09-19T10:03:47;18.60;52.00
10296;DHT22;5193;51.032;6.356;2023-09-19T10:06:18;18.60;50.30
10296;DHT22;5193;51.032;6.356;2023-09-19T10:09:02;18.70;56.60
10296;DHT22;5193;51.032;6.356;2023-09-19T10:12:00;18.80;35.80
10296;DHT22;5193;51.032;6.356;2023-09-19T10:14:30;18.90;35.10
10296;DHT22;5193;51.032;6.356;2023-09-19T10:17:02;19.00;42.20
10296;DHT22;5193;51.032;6.356;2023-09-19T10:19:33;18.90;41.90
10296;DHT22;5193;51.032;6.356;2023-09-19T10:22:02;18.90;37.10
10296;DHT22;5193;51.032;6.356;2023-09-19T10:24:30;18.90;44.50
10296;DHT22;5193;51.032;6.356;2023-09-19T10:26:59;19.00;41.10
10296;DHT22;5193;51.032;6.356;2023-09-19T10:29:28;18.90;41.10
10296;DHT22;5193;51.032;6.356;2023-09-19T10:31:58;18.90;39.10
10296;DHT22;5193;51.032;6.356;2023-09-19T10:34:25;18.90;14.90
10296;DHT22;5193;51.032;6.356;2023-09-19T10:36:52;19.00;36.80
10296;DHT22;5193;51.032;6.356;2023-09-19T10:39:19;18.90;8.40
10296;DHT22;5193;51.032;6.356;2023-09-19T10:41:51;18.90;14.10
10296;DHT22;5193;51.032;6.356;2023-09-19T10:44:23;18.90;32.00
10296;DHT22;5193;51.032;6.356;2023-09-19T10:47:00;18.90;27.90
10296;DHT22;5193;51.032;6.356;2023-09-19T10:49:32;18.80;25.60
10296;DHT22;5193;51.032;6.356;2023-09-19T10:52:01;18.80;1.00
10296;DHT22;5193;51.032;6.356;2023-09-19T10:54:33;18.80;22.00
10296;DHT22;5193;51.032;6.356;2023-09-19T10:57:02;18.80;20.50
10296;DHT22;5193;51.032;6.356;2023-09-19T10:59:30;18.80;30.90
10296;DHT22;5193;51.032;6.356;2023-09-19T11:02:00;18.90;41.90
10296;DHT22;5193;51.032;6.356;2023-09-19T11:04:41;19.00;31.80
10296;DHT22;5193;51.032;6.356;2023-09-19T11:07:12;19.00;17.90
10296;DHT22;5193;51.032;6.356;2023-09-19T11:09:55;19.00;26.80
10296;DHT22;5193;51.032;6.356;2023-09-19T11:26:48;19.30;14.20
10296;DHT22;5193;51.032;6.356;2023-09-19T11:29:27;19.30;13.30
10296;DHT22;5193;51.032;6.356;2023-09-19T11:31:55;19.40;4.40
10296;DHT22;5193;51.032;6.356;2023-09-19T11:39:38;19.60;1.00
10296;DHT22;5193;51.032;6.356;2023-09-19T11:45:07;19.80;26.20
10296;DHT22;5193;51.032;6.356;2023-09-19T11:47:33;19.90;31.50
10296;DHT22;5193;51.032;6.356;2023-09-19T11:50:01;20.00;26.30
10296;DHT22;5193;51.032;6.356;2023-09-19T11:52:28;20.00;22.40
10296;DHT22;5193;51.032;6.356;2023-09-19T11:55:01;20.00;17.20
10296;DHT22;5193;51.032;6.356;2023-09-19T11:57:29;20.00;1.60
10296;DHT22;5193;51.032;6.356;2023-09-19T11:59:55;20.10;1.00
10296;DHT22;5193;51.032;6.356;2023-09-19T12:02:39;20.10;1.00
10296;DHT22;5193;51.032;6.356;2023-09-19T12:07:53;20.30;31.00
10296;DHT22;5193;51.032;6.356;2023-09-19T12:10:19;20.30;30.40
10296;DHT22;5193;51.032;6.356;2023-09-19T12:12:48;20.30;19.10
10296;DHT22;5193;51.032;6.356;2023-09-19T12:15:28;20.40;31.50
10296;DHT22;5193;51.032;6.356;2023-09-19T12:17:59;20.40;31.80
10296;DHT22;5193;51.032;6.356;2023-09-19T12:20:39;20.50;37.60
10296;DHT22;5193;51.032;6.356;2023-09-19T12:23:13;20.50;1.00
10296;DHT22;5193;51.032;6.356;2023-09-19T12:25:42;20.60;11.20
10296;DHT22;5193;51.032;6.356;2023-09-19T12:28:12;20.60;4.80
10296;DHT22;5193;51.032;6.356;2023-09-19T12:30:38;20.70;6.90
10296;DHT22;5193;51.032;6.356;2023-09-19T12:33:30;20.80;1.00
10296;DHT22;5193;51.032;6.356;2023-09-19T12:35:58;20.80;18.80
10296;DHT22;5193;51.032;6.356;2023-09-19T12:38:27;20.80;26.00
10296;DHT22;5193;51.032;6.356;2023-09-19T12:40:55;20.90;1.00
10296;DHT22;5193;51.032;6.356;2023-09-19T12:43:23;20.90;1.00
10296;DHT22;5193;51.032;6.356;2023-09-19T12:45:49;21.00;1.00
10296;DHT22;5193;51.032;6.356;2023-09-19T12:48:23;21.00;9.70
10296;DHT22;5193;51.032;6.356;2023-09-19T12:51:01;21.10;1.90
10296;DHT22;5193;51.032;6.356;2023-09-19T12:53:30;21.10;1.00
10296;DHT22;5193;51.032;6.356;2023-09-19T12:55:59;21.10;1.00
10296;DHT22;5193;51.032;6.356;2023-09-19T12:58:25;21.10;8.00
10296;DHT22;5193;51.032;6.356;2023-09-19T13:00:51;21.10;1.00
10296;DHT22;5193;51.032;6.356;2023-09-19T13:03:27;21.20;1.00
10296;DHT22;5193;51.032;6.356;2023-09-19T13:06:02;21.10;1.00
10296;DHT22;5193;51.032;6.356;2023-09-19T13:08:34;21.10;1.00
10296;DHT22;5193;51.032;6.356;2023-09-19T13:11:11;21.30;1.90
10296;DHT22;5193;51.032;6.356;2023-09-19T13:13:51;21.30;1.00
10296;DHT22;5193;51.032;6.356;2023-09-19T13:16:56;21.30;5.60
10296;DHT22;5193;51.032;6.356;2023-09-19T13:19:43;21.40;12.70
10296;DHT22;5193;51.032;6.356;2023-09-19T13:22:36;21.30;10.90
10296;DHT22;5193;51.032;6.356;2023-09-19T13:25:08;21.40;24.90
10296;DHT22;5193;51.032;6.356;2023-09-19T13:27:40;21.40;1.00
10296;DHT22;5193;51.032;6.356;2023-09-19T13:30:07;21.50;1.00
10296;DHT22;5193;51.032;6.356;2023-09-19T13:32:34;21.40;1.00
10296;DHT22;5193;51.032;6.356;2023-09-19T13:35:00;21.40;1.00
10296;DHT22;5193;51.032;6.356;2023-09-19T13:37:26;21.30;1.00
10296;DHT22;5193;51.032;6.356;2023-09-19T13:39:52;21.20;1.00
10296;DHT22;5193;51.032;6.356;2023-09-19T13:42:19;21.20;1.00
10296;DHT22;5193;51.032;6.356;2023-09-19T13:44:47;21.10;1.00
10296;DHT22;5193;51.032;6.356;2023-09-19T13:47:13;21.00;1.00
10296;DHT22;5193;51.032;6.356;2023-09-19T13:49:40;21.00;1.00
10296;DHT22;5193;51.032;6.356;2023-09-19T13:52:08;20.90;1.00
10296;DHT22;5193;51.032;6.356;2023-09-19T13:54:34;20.80;1.00
10296;DHT22;5193;51.032;6.356;2023-09-19T13:57:01;20.80;1.00
10296;DHT22;5193;51.032;6.356;2023-09-19T13:59:26;20.80;1.00
10296;DHT22;5193;51.032;6.356;2023-09-19T14:01:54;20.80;1.00
10296;DHT22;5193;51.032;6.356;2023-09-19T14:04:20;20.80;1.00
10296;DHT22;5193;51.032;6.356;2023-09-19T14:06:47;20.90;1.20
10296;DHT22;5193;51.032;6.356;2023-09-19T14:09:13;21.00;1.00
10296;DHT22;5193;51.032;6.356;2023-09-19T14:11:39;21.00;1.00
10296;DHT22;5193;51.032;6.356;2023-09-19T14:14:07;21.00;1.00
10296;DHT22;5193;51.032;6.356;2023-09-19T14:16:33;21.00;1.00
10296;DHT22;5193;51.032;6.356;2023-09-19T14:18:59;21.00;1.00
10296;DHT22;5193;51.032;6.356;2023-09-19T14:21:25;20.90;1.00
10296;DHT22;5193;51.032;6.356;2023-09-19T14:23:52;20.90;1.00
10296;DHT22;5193;51.032;6.356;2023-09-19T14:26:20;20.80;1.00
10296;DHT22;5193;51.032;6.356;2023-09-19T14:28:48;20.80;1.00
10296;DHT22;5193;51.032;6.356;2023-09-19T14:31:14;20.60;1.00
10296;DHT22;5193;51.032;6.356;2023-09-19T14:33:40;20.60;1.00
10296;DHT22;5193;51.032;6.356;2023-09-19T14:36:08;20.50;1.00
10296;DHT22;5193;51.032;6.356;2023-09-19T14:38:36;20.50;1.00
10296;DHT22;5193;51.032;6.356;2023-09-19T14:41:04;20.40;1.00
10296;DHT22;5193;51.032;6.356;2023-09-19T14:43:30;20.30;1.00
10296;DHT22;5193;51.032;6.356;2023-09-19T14:45:56;20.30;1.00
10296;DHT22;5193;51.032;6.356;2023-09-19T14:48:25;20.30;1.00
10296;DHT22;5193;51.032;6.356;2023-09-19T14:50:52;20.20;1.00
10296;DHT22;5193;51.032;6.356;2023-09-19T14:53:18;20.20;1.00
10296;DHT22;5193;51.032;6.356;2023-09-19T14:55:44;20.20;1.00
10296;DHT22;5193;51.032;6.356;2023-09-19T14:58:11;20.10;1.00
10296;DHT22;5193;51.032;6.356;2023-09-19T15:00:37;20.10;1.00
10296;DHT22;5193;51.032;6.356;2023-09-19T15:03:03;20.10;1.00
10296;DHT22;5193;51.032;6.356;2023-09-19T15:05:29;20.20;1.00
10296;DHT22;5193;51.032;6.356;2023-09-19T15:07:55;20.20;1.00
10296;DHT22;5193;51.032;6.356;2023-09-19T15:10:22;20.10;1.00
10296;DHT22;5193;51.032;6.356;2023-09-19T15:12:48;20.10;1.00
10296;DHT22;5193;51.032;6.356;2023-09-19T15:15:14;20.10;1.00
10296;DHT22;5193;51.032;6.356;2023-09-19T15:17:40;20.10;1.00
10296;DHT22;5193;51.032;6.356;2023-09-19T15:20:07;20.00;1.00
10296;DHT22;5193;51.032;6.356;2023-09-19T15:22:33;20.00;1.00
10296;DHT22;5193;51.032;6.356;2023-09-19T15:25:00;20.00;1.00
10296;DHT22;5193;51.032;6.356;2023-09-19T15:27:28;20.00;1.00
10296;DHT22;5193;51.032;6.356;2023-09-19T15:29:55;20.00;1.00
10296;DHT22;5193;51.032;6.356;2023-09-19T15:32:21;20.00;1.00
10296;DHT22;5193;51.032;6.356;2023-09-19T15:34:47;20.00;1.00
10296;DHT22;5193;51.032;6.356;2023-09-19T15:37:14;19.90;1.00
10296;DHT22;5193;51.032;6.356;2023-09-19T15:39:40;19.90;1.00
10296;DHT22;5193;51.032;6.356;2023-09-19T15:42:06;19.90;1.00
10296;DHT22;5193;51.032;6.356;2023-09-19T15:44:32;19.90;1.00
10296;DHT22;5193;51.032;6.356;2023-09-19T15:46:58;19.90;1.00
10296;DHT22;5193;51.032;6.356;2023-09-19T15:49:24;19.80;1.00
10296;DHT22;5193;51.032;6.356;2023-09-19T15:51:50;19.80;1.00
10296;DHT22;5193;51.032;6.356;2023-09-19T15:54:16;19.80;1.00
10296;DHT22;5193;51.032;6.356;2023-09-19T15:56:44;19.90;1.00
10296;DHT22;5193;51.032;6.356;2023-09-19T15:59:10;19.90;1.00
10296;DHT22;5193;51.032;6.356;2023-09-19T16:01:40;19.80;1.00
10296;DHT22;5193;51.032;6.356;2023-09-19T16:04:07;19.80;1.00
10296;DHT22;5193;51.032;6.356;2023-09-19T16:06:36;19.80;1.00
10296;DHT22;5193;51.032;6.356;2023-09-19T16:09:05;19.80;1.00
10296;DHT22;5193;51.032;6.356;2023-09-19T16:14:13;19.80;1.00
10296;DHT22;5193;51.032;6.356;2023-09-19T16:16:40;19.80;1.00
10296;DHT22;5193;51.032;6.356;2023-09-19T16:19:07;19.80;1.00
10296;DHT22;5193;51.032;6.356;2023-09-19T16:21:37;19.70;1.00
10296;DHT22;5193;51.032;6.356;2023-09-19T16:24:06;19.70;1.00
10296;DHT22;5193;51.032;6.356;2023-09-19T16:26:34;19.60;1.00
10296;DHT22;5193;51.032;6.356;2023-09-19T16:29:00;19.50;1.00
10296;DHT22;5193;51.032;6.356;2023-09-19T16:31:27;19.50;1.00
10296;DHT22;5193;51.032;6.356;2023-09-19T16:33:54;19.40;1.00
10296;DHT22;5193;51.032;6.356;2023-09-19T16:36:25;19.30;1.00
10296;DHT22;5193;51.032;6.356;2023-09-19T16:38:51;19.20;1.00
10296;DHT22;5193;51.032;6.356;2023-09-19T16:41:18;19.20;1.00
10296;DHT22;5193;51.032;6.356;2023-09-19T16:43:44;19.20;1.00
10296;DHT22;5193;51.032;6.356;2023-09-19T16:46:11;19.10;1.00
10296;DHT22;5193;51.032;6.356;2023-09-19T16:48:39;19.10;1.00
10296;DHT22;5193;51.032;6.356;2023-09-19T16:51:08;19.10;1.00
10296;DHT22;5193;51.032;6.356;2023-09-19T16:53:36;19.00;1.00
10296;DHT22;5193;51.032;6.356;2023-09-19T16:56:05;19.00;1.00
10296;DHT22;5193;51.032;6.356;2023-09-19T16:58:39;18.90;1.00
10296;DHT22;5193;51.032;6.356;2023-09-19T17:01:10;18.90;1.00
10296;DHT22;5193;51.032;6.356;2023-09-19T17:03:37;18.90;1.00
10296;DHT22;5193;51.032;6.356;2023-09-19T17:06:06;18.80;1.00
10296;DHT22;5193;51.032;6.356;2023-09-19T17:08:32;18.70;1.00
10296;DHT22;5193;51.032;6.356;2023-09-19T17:11:03;18.60;1.00
10296;DHT22;5193;51.032;6.356;2023-09-19T17:13:30;18.60;1.00
10296;DHT22;5193;51.032;6.356;2023-09-19T17:16:10;18.60;1.00
10296;DHT22;5193;51.032;6.356;2023-09-19T17:18:41;18.60;1.00
10296;DHT22;5193;51.032;6.356;2023-09-19T17:21:10;18.50;1.00
10296;DHT22;5193;51.032;6.356;2023-09-19T17:23:39;18.50;2.70
10296;DHT22;5193;51.032;6.356;2023-09-19T17:26:07;18.40;4.10
10296;DHT22;5193;51.032;6.356;2023-09-19T17:28:36;18.30;5.00